createdAt,value
2019-05-26T00:01:53.757Z,100636.65
2019-05-26T00:04:25.651Z,100632.11
2019-05-26T00:06:56.688Z,100624.00
2019-05-26T00:09:28.054Z,100629.30
2019-05-26T00:11:59.084Z,100627.19
2019-05-26T00:14:30.056Z,100624.59
2019-05-26T00:17:02.408Z,100614.45
2019-05-26T00:19:33.930Z,100615.38
2019-05-26T00:22:05.010Z,100611.52
2019-05-26T00:24:36.352Z,100609.16
2019-05-26T00:27:07.430Z,100607.24
2019-05-26T00:29:38.941Z,100607.31
2019-05-26T00:32:09.896Z,100613.08
2019-05-26T00:34:40.885Z,100611.09
2019-05-26T00:37:12.276Z,100607.87
2019-05-26T00:39:43.566Z,100614.32
2019-05-26T00:42:14.794Z,100606.52
2019-05-26T00:44:45.750Z,100606.70
2019-05-26T00:47:16.982Z,100612.18
2019-05-26T00:49:47.943Z,100601.86
2019-05-26T00:52:19.253Z,100604.72
2019-05-26T00:54:50.599Z,100598.04
2019-05-26T00:57:21.741Z,100595.41
2019-05-26T00:59:52.804Z,100595.10
2019-05-26T01:02:24.070Z,100595.34
2019-05-26T01:04:55.285Z,100597.91
2019-05-26T01:07:26.964Z,100599.19
2019-05-26T01:09:57.901Z,100596.96
2019-05-26T01:12:29.363Z,100596.91
2019-05-26T01:15:00.316Z,100591.95
2019-05-26T01:17:31.275Z,100591.95
2019-05-26T01:20:02.298Z,100593.31
2019-05-26T01:22:33.311Z,100593.72
2019-05-26T01:25:04.560Z,100595.67
2019-05-26T01:27:35.942Z,100597.45
2019-05-26T01:30:08.090Z,100595.61
2019-05-26T01:32:39.157Z,100596.78
2019-05-26T01:35:10.512Z,100589.19
2019-05-26T01:37:41.890Z,100586.39
2019-05-26T01:40:12.949Z,100582.20
2019-05-26T01:42:43.907Z,100580.94
2019-05-26T01:45:14.929Z,100583.29
2019-05-26T01:47:45.910Z,100579.68
2019-05-26T01:50:16.886Z,100579.49
2019-05-26T01:52:48.352Z,100581.19
2019-05-26T01:55:19.876Z,100585.48
2019-05-26T01:57:50.870Z,100581.38
2019-05-26T02:00:22.989Z,100577.28
2019-05-26T02:02:54.080Z,100577.80
2019-05-26T02:05:25.129Z,100577.03
2019-05-26T02:07:56.086Z,100576.56
2019-05-26T02:10:28.180Z,100578.26
2019-05-26T02:12:59.482Z,100572.34
2019-05-26T02:15:30.893Z,100581.63
2019-05-26T02:18:02.449Z,100571.20
2019-05-26T02:20:33.660Z,100567.35
2019-05-26T02:23:04.713Z,100567.35
2019-05-26T02:25:35.701Z,100564.30
2019-05-26T02:28:06.919Z,100565.66
2019-05-26T02:30:38.841Z,100565.73
2019-05-26T02:33:10.092Z,100560.66
2019-05-26T02:35:41.131Z,100561.95
2019-05-26T02:38:12.179Z,100559.89
2019-05-26T02:40:43.526Z,100558.94
2019-05-26T02:43:14.592Z,100555.78
2019-05-26T02:45:45.561Z,100556.15
2019-05-26T02:48:16.723Z,100554.53
2019-05-26T02:50:47.935Z,100551.04
2019-05-26T02:53:24.301Z,100546.93
2019-05-26T02:55:51.979Z,100549.72
2019-05-26T02:58:23.110Z,100544.47
2019-05-26T03:00:54.269Z,100542.14
2019-05-26T03:03:25.786Z,100542.64
2019-05-26T03:05:56.854Z,100543.32
2019-05-26T03:08:31.699Z,100540.35
2019-05-26T03:11:03.422Z,100540.28
2019-05-26T03:13:36.492Z,100535.98
2019-05-26T03:16:08.158Z,100534.30
2019-05-26T03:18:40.200Z,100537.60
2019-05-26T03:21:11.704Z,100532.57
2019-05-26T03:23:42.883Z,100526.78
2019-05-26T03:26:14.906Z,100530.67
2019-05-26T03:28:46.103Z,100524.52
2019-05-26T03:31:17.121Z,100525.80
2019-05-26T03:33:48.688Z,100524.16
2019-05-26T03:36:19.674Z,100529.30
2019-05-26T03:38:50.645Z,100523.90
2019-05-26T03:41:21.704Z,100525.19
2019-05-26T03:43:53.043Z,100526.66
2019-05-26T03:46:24.010Z,100523.94
2019-05-26T03:48:55.041Z,100520.38
2019-05-26T03:51:26.424Z,100519.03
2019-05-26T03:53:57.424Z,100519.71
2019-05-26T03:56:28.671Z,100523.22
2019-05-26T03:58:59.990Z,100511.71
2019-05-26T04:01:31.264Z,100506.16
2019-05-26T04:04:02.315Z,100505.53
2019-05-26T04:06:33.341Z,100497.34
2019-05-26T04:09:06.372Z,100504.63
2019-05-26T04:11:37.370Z,100500.41
2019-05-26T04:14:08.290Z,100497.98
2019-05-26T04:16:39.824Z,100501.72
2019-05-26T04:19:11.630Z,100498.83
2019-05-26T04:21:42.812Z,100497.69
2019-05-26T04:24:14.035Z,100500.33
2019-05-26T04:26:45.036Z,100500.80
2019-05-26T04:29:16.341Z,100493.91
2019-05-26T04:31:47.356Z,100494.47
2019-05-26T04:34:18.812Z,100491.44
2019-05-26T04:36:50.156Z,100494.80
2019-05-26T04:39:21.096Z,100489.80
2019-05-26T04:41:52.166Z,100491.77
2019-05-26T04:44:23.161Z,100486.38
2019-05-26T04:46:54.147Z,100478.28
2019-05-26T04:49:25.518Z,100493.09
2019-05-26T04:51:56.480Z,100484.80
2019-05-26T04:54:27.453Z,100480.76
2019-05-26T04:56:58.421Z,100478.80
2019-05-26T04:59:29.385Z,100475.59
2019-05-26T05:02:00.948Z,100469.06
2019-05-26T05:04:32.565Z,100476.26
2019-05-26T05:07:03.537Z,100470.91
2019-05-26T05:09:34.818Z,100470.55
2019-05-26T05:12:05.816Z,100473.36
2019-05-26T05:14:36.773Z,100474.69
2019-05-26T05:17:08.004Z,100472.61
2019-05-26T05:19:38.950Z,100472.72
2019-05-26T05:22:09.919Z,100471.33
2019-05-26T05:24:40.878Z,100468.51
2019-05-26T05:27:11.895Z,100465.09
2019-05-26T05:29:42.861Z,100466.73
2019-05-26T05:32:13.852Z,100469.94
2019-05-26T05:34:46.422Z,100466.38
2019-05-26T05:37:17.666Z,100466.22
2019-05-26T05:39:48.876Z,100469.05
2019-05-26T05:42:19.884Z,100465.73
2019-05-26T05:44:51.148Z,100461.88
2019-05-26T05:47:22.649Z,100466.80
2019-05-26T05:49:53.596Z,100464.66
2019-05-26T05:52:24.588Z,100467.77
2019-05-26T05:54:55.874Z,100458.41
2019-05-26T05:57:27.186Z,100458.45
2019-05-26T05:59:58.605Z,100454.16
2019-05-26T06:02:29.898Z,100452.52
2019-05-26T06:05:01.775Z,100455.06
2019-05-26T06:07:33.213Z,100443.09
2019-05-26T06:10:05.655Z,100442.22
2019-05-26T06:12:36.769Z,100439.15
2019-05-26T06:15:09.610Z,100440.44
2019-05-26T06:17:40.650Z,100440.77
2019-05-26T06:20:12.336Z,100436.89
2019-05-26T06:22:43.724Z,100435.89
2019-05-26T06:25:15.405Z,100433.47
2019-05-26T06:27:46.904Z,100434.77
2019-05-26T06:30:18.330Z,100435.65
2019-05-26T06:32:49.381Z,100437.00
2019-05-26T06:35:20.536Z,100435.71
2019-05-26T06:37:51.506Z,100437.83
2019-05-26T06:40:22.600Z,100443.44
2019-05-26T06:42:53.618Z,100441.09
2019-05-26T06:45:24.677Z,100432.38
2019-05-26T06:47:55.834Z,100442.95
2019-05-26T06:50:27.176Z,100424.13
2019-05-26T06:52:59.346Z,100433.25
2019-05-26T06:55:30.481Z,100431.27
2019-05-26T06:58:01.468Z,100435.02
2019-05-26T07:00:33.049Z,100430.00
2019-05-26T07:03:04.088Z,100439.62
2019-05-26T07:05:35.093Z,100433.67
2019-05-26T07:08:06.377Z,100434.95
2019-05-26T07:10:37.447Z,100427.41
2019-05-26T07:13:08.685Z,100421.19
2019-05-26T07:15:39.958Z,100420.23
2019-05-26T07:18:11.171Z,100420.55
2019-05-26T07:20:42.844Z,100418.52
2019-05-26T07:23:14.359Z,100418.20
2019-05-26T07:25:46.230Z,100411.50
2019-05-26T07:28:17.251Z,100410.89
2019-05-26T07:30:48.556Z,100416.25
2019-05-26T07:33:19.690Z,100421.84
2019-05-26T07:35:50.886Z,100413.82
2019-05-26T07:38:21.986Z,100409.81
2019-05-26T07:40:53.188Z,100411.66
2019-05-26T07:43:27.979Z,100405.95
2019-05-26T07:45:58.342Z,100405.59
2019-05-26T07:48:29.316Z,100404.72
2019-05-26T07:51:00.511Z,100408.16
2019-05-26T07:53:31.711Z,100406.93
2019-05-26T07:56:03.691Z,100399.11
2019-05-26T07:58:34.965Z,100400.07
2019-05-26T08:01:06.442Z,100399.89
2019-05-26T08:03:37.381Z,100399.65
2019-05-26T08:06:08.406Z,100404.20
2019-05-26T08:08:39.394Z,100400.76
2019-05-26T08:11:10.609Z,100402.31
2019-05-26T08:13:41.594Z,100398.70
2019-05-26T08:16:12.996Z,100392.56
2019-05-26T08:18:44.041Z,100392.95
2019-05-26T08:21:15.143Z,100396.77
2019-05-26T08:23:46.090Z,100396.05
2019-05-26T08:26:17.651Z,100394.28
2019-05-26T08:28:48.602Z,100388.38
2019-05-26T08:31:19.707Z,100398.08
2019-05-26T08:33:51.969Z,100396.12
2019-05-26T08:36:23.024Z,100392.02
2019-05-26T08:38:55.045Z,100393.09
2019-05-26T08:41:26.958Z,100392.95
2019-05-26T08:43:57.962Z,100390.05
2019-05-26T08:46:28.985Z,100390.80
2019-05-26T08:49:00.020Z,100387.56
2019-05-26T08:51:31.562Z,100383.20
2019-05-26T08:54:02.597Z,100378.44
2019-05-26T08:56:34.647Z,100382.81
2019-05-26T08:59:05.688Z,100368.97
2019-05-26T09:01:36.638Z,100378.00
2019-05-26T09:04:07.741Z,100360.17
2019-05-26T09:06:38.710Z,100362.48
2019-05-26T09:09:09.716Z,100363.75
2019-05-26T09:11:40.765Z,100369.56
2019-05-26T09:14:11.708Z,100366.64
2019-05-26T09:16:42.992Z,100358.31
2019-05-26T09:19:14.677Z,100368.48
2019-05-26T09:21:46.994Z,100370.89
2019-05-26T09:24:18.072Z,100370.73
2019-05-26T09:26:49.511Z,100369.84
2019-05-26T09:29:20.803Z,100371.78
2019-05-26T09:31:51.980Z,100365.52
2019-05-26T09:34:23.012Z,100364.64
2019-05-26T09:36:56.884Z,100359.67
2019-05-26T09:39:27.691Z,100349.98
2019-05-26T09:41:58.688Z,100348.98
2019-05-26T09:44:29.823Z,100343.81
2019-05-26T09:47:00.762Z,100338.23
2019-05-26T09:49:31.916Z,100339.52
2019-05-26T09:52:03.120Z,100342.08
2019-05-26T09:54:34.198Z,100330.25
2019-05-26T09:57:05.757Z,100333.42
2019-05-26T09:59:37.033Z,100325.33
2019-05-26T10:02:08.307Z,100325.36
2019-05-26T10:04:39.293Z,100332.66
2019-05-26T10:07:13.469Z,100330.34
2019-05-26T10:09:43.274Z,100326.38
2019-05-26T10:12:14.698Z,100327.47
2019-05-26T10:14:47.865Z,100324.78
2019-05-26T10:17:23.656Z,100329.34
2019-05-26T10:19:55.446Z,100322.86
2019-05-26T10:22:26.729Z,100327.45
2019-05-26T10:24:57.802Z,100323.25
2019-05-26T10:27:28.742Z,100317.39
2019-05-26T10:30:01.241Z,100307.41
2019-05-26T10:32:32.273Z,100307.41
2019-05-26T10:35:03.604Z,100318.88
2019-05-26T10:37:34.766Z,100309.56
2019-05-26T10:40:07.795Z,100306.45
2019-05-26T10:42:39.089Z,100319.55
2019-05-26T10:45:10.641Z,100317.34
2019-05-26T10:47:41.717Z,100311.34
2019-05-26T10:50:13.443Z,100312.65
2019-05-26T10:52:44.743Z,100302.86
2019-05-26T10:55:15.865Z,100310.05
2019-05-26T10:57:46.964Z,100306.88
2019-05-26T11:00:18.725Z,100300.72
2019-05-26T11:02:50.185Z,100309.09
2019-05-26T11:05:21.251Z,100299.84
2019-05-26T11:07:52.238Z,100301.74
2019-05-26T11:10:23.714Z,100305.24
2019-05-26T11:12:54.717Z,100306.17
2019-05-26T11:15:25.701Z,100302.89
2019-05-26T11:17:56.647Z,100307.02
2019-05-26T11:20:27.922Z,100304.64
2019-05-26T11:22:58.966Z,100300.03
2019-05-26T11:25:30.922Z,100303.87
2019-05-26T11:28:01.924Z,100295.82
2019-05-26T11:30:34.296Z,100300.24
2019-05-26T11:33:05.709Z,100304.59
2019-05-26T11:35:37.330Z,100298.87
2019-05-26T11:38:08.377Z,100290.35
2019-05-26T11:40:39.626Z,100286.09
2019-05-26T11:43:16.730Z,100294.62
2019-05-26T11:45:43.935Z,100290.73
2019-05-26T11:48:14.960Z,100288.37
2019-05-26T11:50:45.919Z,100281.86
2019-05-26T11:53:17.148Z,100281.62
2019-05-26T11:55:48.142Z,100269.88
2019-05-26T11:58:19.259Z,100263.59
2019-05-26T12:00:50.216Z,100268.71
2019-05-26T12:03:21.884Z,100259.19
2019-05-26T12:05:52.969Z,100255.39
2019-05-26T12:08:24.277Z,100246.42
2019-05-26T12:10:58.416Z,100253.50
2019-05-26T12:13:28.238Z,100252.04
2019-05-26T12:15:59.253Z,100239.10
2019-05-26T12:18:30.426Z,100248.17
2019-05-26T12:21:01.464Z,100247.13
2019-05-26T12:23:32.878Z,100251.06
2019-05-26T12:26:04.190Z,100236.95
2019-05-26T12:28:35.775Z,100245.51
2019-05-26T12:31:07.317Z,100250.76
2019-05-26T12:33:38.465Z,100240.90
2019-05-26T12:36:09.756Z,100238.97
2019-05-26T12:38:53.635Z,100241.98
2019-05-26T12:41:24.610Z,100238.16
2019-05-26T12:43:55.616Z,100242.75
2019-05-26T12:46:26.619Z,100234.12
2019-05-26T12:48:57.717Z,100236.27
2019-05-26T12:51:28.698Z,100237.55
2019-05-26T12:53:59.702Z,100229.14
2019-05-26T12:56:30.720Z,100231.87
2019-05-26T12:59:01.707Z,100230.95
2019-05-26T13:01:32.863Z,100223.63
2019-05-26T13:04:04.167Z,100215.91
2019-05-26T13:06:35.148Z,100211.40
2019-05-26T13:09:09.163Z,100202.36
2019-05-26T13:11:40.415Z,100207.77
2019-05-26T13:14:12.718Z,100215.05
2019-05-26T13:16:43.952Z,100210.66
2019-05-26T13:19:16.141Z,100219.09
2019-05-26T13:21:47.209Z,100215.19
2019-05-26T13:24:18.765Z,100219.13
2019-05-26T13:26:49.807Z,100210.42
2019-05-26T13:29:25.522Z,100209.33
2019-05-26T13:31:55.195Z,100209.45
2019-05-26T13:34:27.125Z,100197.91
2019-05-26T13:36:58.464Z,100208.77
2019-05-26T13:39:29.444Z,100206.08
2019-05-26T13:42:00.447Z,100197.85
2019-05-26T13:44:32.504Z,100200.08
2019-05-26T13:47:03.474Z,100196.23
2019-05-26T13:49:34.691Z,100197.80
2019-05-26T13:52:05.767Z,100199.87
2019-05-26T13:54:36.737Z,100200.84
2019-05-26T13:57:07.795Z,100200.67
2019-05-26T13:59:39.949Z,100191.80
2019-05-26T14:02:11.236Z,100193.45
2019-05-26T14:04:42.343Z,100187.73
2019-05-26T14:07:13.557Z,100192.02
2019-05-26T14:09:44.659Z,100196.74
2019-05-26T14:12:15.763Z,100194.16
2019-05-26T14:14:46.992Z,100189.05
2019-05-26T14:17:18.037Z,100188.92
2019-05-26T14:19:49.277Z,100178.05
2019-05-26T14:22:20.361Z,100177.34
2019-05-26T14:24:54.163Z,100174.31
2019-05-26T14:27:24.355Z,100172.17
2019-05-26T14:29:56.194Z,100172.95
2019-05-26T14:32:27.518Z,100176.85
2019-05-26T14:34:58.480Z,100170.66
2019-05-26T14:37:29.586Z,100160.70
2019-05-26T14:40:00.555Z,100171.30
2019-05-26T14:42:32.253Z,100160.40
2019-05-26T14:45:04.332Z,100143.22
2019-05-26T14:47:35.978Z,100135.95
2019-05-26T14:50:07.463Z,100139.20
2019-05-26T14:52:38.683Z,100137.59
2019-05-26T14:55:09.890Z,100128.05
2019-05-26T14:57:40.844Z,100137.61
2019-05-26T15:00:12.297Z,100124.38
2019-05-26T15:02:43.661Z,100133.00
2019-05-26T15:05:15.775Z,100125.16
2019-05-26T15:07:47.161Z,100107.33
2019-05-26T15:10:18.522Z,100113.46
2019-05-26T15:12:49.652Z,100114.89
2019-05-26T15:15:20.921Z,100108.64
2019-05-26T15:17:52.515Z,100099.06
2019-05-26T15:20:23.469Z,100095.81
2019-05-26T15:22:54.968Z,100096.56
2019-05-26T15:25:26.490Z,100102.62
2019-05-26T15:27:58.169Z,100096.97
2019-05-26T15:30:29.570Z,100096.97
2019-05-26T15:33:01.052Z,100090.08
2019-05-26T15:35:32.419Z,100102.53
2019-05-26T15:38:03.494Z,100093.03
2019-05-26T15:40:34.728Z,100097.30
2019-05-26T15:43:05.976Z,100097.30
2019-05-26T15:45:42.158Z,100092.27
2019-05-26T15:48:13.698Z,100088.00
2019-05-26T15:53:35.041Z,100084.16
2019-05-26T15:56:06.018Z,100080.44
2019-05-26T15:58:37.295Z,100080.12
2019-05-26T16:01:08.615Z,100079.25
2019-05-26T16:03:39.917Z,100070.30
2019-05-26T16:06:12.348Z,100074.45
2019-05-26T16:08:43.359Z,100064.88
2019-05-26T16:11:14.621Z,100074.14
2019-05-26T16:13:45.646Z,100067.36
2019-05-26T16:16:16.692Z,100069.34
2019-05-26T16:18:47.915Z,100063.83
2019-05-26T16:21:27.989Z,100058.13
2019-05-26T16:23:52.310Z,100057.30
2019-05-26T16:26:23.431Z,100049.16
2019-05-26T16:29:01.562Z,100045.01
2019-05-26T16:31:32.863Z,100039.28
2019-05-26T16:34:03.921Z,100043.64
2019-05-26T16:36:34.922Z,100039.79
2019-05-26T16:39:07.791Z,100038.47
2019-05-26T16:41:38.744Z,100046.33
2019-05-26T16:44:09.796Z,100037.45
2019-05-26T16:46:55.413Z,100037.78
2019-05-26T16:49:14.181Z,100037.13
2019-05-26T16:51:45.262Z,100037.94
2019-05-26T16:54:16.203Z,100033.06
2019-05-26T16:56:47.237Z,100031.59
2019-05-26T16:59:18.275Z,100027.05
2019-05-26T17:01:49.922Z,100019.99
2019-05-26T17:04:21.099Z,100012.25
2019-05-26T17:06:52.383Z,100017.13
2019-05-26T17:09:23.661Z,100018.48
2019-05-26T17:11:54.698Z,100011.27
2019-05-26T17:14:26.132Z,100006.87
2019-05-26T17:17:13.424Z,100010.89
2019-05-26T17:19:32.132Z,100009.91
2019-05-26T17:22:09.873Z,100012.27
2019-05-26T17:24:41.125Z,100009.07
2019-05-26T17:27:12.119Z,100000.84
2019-05-26T17:29:43.420Z,100004.70
2019-05-26T17:32:14.610Z,100000.68
2019-05-26T17:34:46.003Z,100002.34
2019-05-26T17:37:16.990Z,99998.66
2019-05-26T17:39:48.163Z,100003.50
2019-05-26T17:42:19.167Z,100009.87
2019-05-26T17:44:50.502Z,100003.84
2019-05-26T17:47:30.003Z,100001.17
2019-05-26T17:49:54.770Z,100000.34
2019-05-26T17:52:27.316Z,99995.97
2019-05-26T17:54:58.398Z,99992.77
2019-05-26T17:57:30.974Z,99991.74
2019-05-26T18:00:02.004Z,99992.44
2019-05-26T18:02:35.945Z,99994.76
2019-05-26T18:05:10.541Z,99977.98
2019-05-26T18:07:44.733Z,99980.33
2019-05-26T18:10:16.211Z,99984.18
2019-05-26T18:12:47.392Z,99981.00
2019-05-26T18:15:19.038Z,99978.28
2019-05-26T18:17:50.092Z,99984.33
2019-05-26T18:20:21.579Z,99977.95
2019-05-26T18:22:52.738Z,99984.31
2019-05-26T18:25:24.939Z,99986.17
2019-05-26T18:27:56.083Z,99995.09
2019-05-26T18:30:27.894Z,99990.52
2019-05-26T18:32:59.090Z,99987.33
2019-05-26T18:35:30.162Z,99987.50
2019-05-26T18:38:01.609Z,99980.95
2019-05-26T18:40:32.715Z,99983.59
2019-05-26T18:43:03.868Z,99982.06
2019-05-26T18:45:35.290Z,99980.94
2019-05-26T18:48:06.332Z,99981.25
2019-05-26T18:51:03.408Z,99986.41
2019-05-26T18:53:36.404Z,99984.52
2019-05-26T18:56:07.693Z,99992.59
2019-05-26T18:58:38.740Z,99984.56
2019-05-26T19:01:10.171Z,99981.13
2019-05-26T19:03:41.204Z,99981.75
2019-05-26T19:06:12.275Z,99980.81
2019-05-26T19:08:43.421Z,99979.06
2019-05-26T19:11:15.785Z,99977.55
2019-05-26T19:13:47.202Z,99980.56
2019-05-26T19:16:18.566Z,99973.83
2019-05-26T19:18:49.862Z,99974.13
2019-05-26T19:21:21.610Z,99975.27
2019-05-26T19:23:52.688Z,99968.28
2019-05-26T19:26:23.791Z,99967.78
2019-05-26T19:28:55.429Z,99972.61
2019-05-26T19:31:30.133Z,99966.92
2019-05-26T19:34:01.792Z,99969.58
2019-05-26T19:36:33.091Z,99965.27
2019-05-26T19:39:05.628Z,99960.98
2019-05-26T19:41:39.107Z,99966.68
2019-05-26T19:44:10.794Z,99959.47
2019-05-26T19:46:42.085Z,99963.82
2019-05-26T19:49:13.305Z,99963.49
2019-05-26T19:51:45.009Z,99962.84
2019-05-26T19:54:15.954Z,99961.80
2019-05-26T19:56:48.504Z,99954.04
2019-05-26T19:59:19.677Z,99957.98
2019-05-26T20:01:50.669Z,99960.63
2019-05-26T20:04:22.644Z,99963.06
2019-05-26T20:06:53.845Z,99957.66
2019-05-26T20:09:25.150Z,99955.31
2019-05-26T20:11:56.247Z,99949.80
2019-05-26T20:17:16.967Z,99954.22
2019-05-26T20:19:48.424Z,99949.12
2019-05-26T20:22:19.776Z,99942.45
2019-05-26T20:24:50.873Z,99943.31
2019-05-26T20:27:22.139Z,99945.63
2019-05-26T20:29:53.241Z,99937.81
2019-05-26T20:32:24.312Z,99938.72
2019-05-26T20:34:55.797Z,99942.56
2019-05-26T20:37:27.145Z,99939.19
2019-05-26T20:39:58.169Z,99936.25
2019-05-26T20:42:29.241Z,99930.49
2019-05-26T20:45:00.239Z,99933.50
2019-05-26T20:47:31.276Z,99933.28
2019-05-26T20:50:02.376Z,99928.86
2019-05-26T20:52:33.491Z,99931.44
2019-05-26T20:55:04.977Z,99927.63
2019-05-26T20:57:36.212Z,99928.83
2019-05-26T21:00:09.011Z,99925.89
2019-05-26T21:02:40.167Z,99925.31
2019-05-26T21:05:11.239Z,99926.47
2019-05-26T21:07:42.461Z,99924.45
2019-05-26T21:10:13.508Z,99920.31
2019-05-26T21:12:44.607Z,99916.91
2019-05-26T21:15:15.949Z,99916.66
2019-05-26T21:17:47.631Z,99917.70
2019-05-26T21:20:18.976Z,99915.50
2019-05-26T21:22:50.067Z,99907.38
2019-05-26T21:25:21.436Z,99922.34
2019-05-26T21:27:52.954Z,99914.66
2019-05-26T21:30:23.968Z,99911.37
2019-05-26T21:32:56.284Z,99904.84
2019-05-26T21:35:27.806Z,99904.77
2019-05-26T21:37:59.024Z,99903.98
2019-05-26T21:40:30.084Z,99906.38
2019-05-26T21:43:01.349Z,99903.19
2019-05-26T21:45:32.630Z,99903.33
2019-05-26T21:48:03.693Z,99908.08
2019-05-26T21:50:34.911Z,99902.92
2019-05-26T21:53:05.920Z,99905.13
2019-05-26T21:55:36.993Z,99903.53
2019-05-26T21:58:08.030Z,99897.56
2019-05-26T22:00:45.022Z,99891.95
2019-05-26T22:03:17.663Z,99894.63
2019-05-26T22:05:49.075Z,99887.81
2019-05-26T22:08:20.378Z,99891.00
2019-05-26T22:10:51.671Z,99894.84
2019-05-26T22:13:22.707Z,99887.53
2019-05-26T22:15:53.694Z,99893.08
2019-05-26T22:18:24.897Z,99879.42
2019-05-26T22:20:55.979Z,99882.64
2019-05-26T22:23:27.411Z,99879.05
2019-05-26T22:25:59.005Z,99876.88
2019-05-26T22:28:29.991Z,99873.19
2019-05-26T22:31:01.051Z,99868.11
2019-05-26T22:36:06.820Z,99867.91
2019-05-26T22:38:38.105Z,99865.15
2019-05-26T22:41:09.347Z,99863.24
2019-05-26T22:43:42.499Z,99857.12
2019-05-26T22:46:13.819Z,99854.72
2019-05-26T22:48:45.641Z,99849.08
2019-05-26T22:51:16.587Z,99844.19
2019-05-26T22:53:47.603Z,99847.97
2019-05-26T22:56:20.400Z,99851.34
2019-05-26T22:58:51.614Z,99846.03
2019-05-26T23:01:22.888Z,99849.31
2019-05-26T23:03:53.851Z,99848.34
2019-05-26T23:06:24.801Z,99850.42
2019-05-26T23:08:55.898Z,99851.80
2019-05-26T23:11:27.428Z,99846.58
2019-05-26T23:13:58.449Z,99836.52
2019-05-26T23:16:29.704Z,99827.97
2019-05-26T23:19:00.724Z,99828.77
2019-05-26T23:21:32.293Z,99819.94
2019-05-26T23:24:03.454Z,99817.73
2019-05-26T23:26:34.466Z,99814.89
2019-05-26T23:29:06.045Z,99814.89
2019-05-26T23:31:37.468Z,99815.88
2019-05-26T23:34:09.016Z,99808.45
2019-05-26T23:36:40.044Z,99800.34
2019-05-26T23:39:11.090Z,99803.98
2019-05-26T23:41:42.005Z,99798.03
2019-05-26T23:44:13.719Z,99803.39
2019-05-26T23:46:45.148Z,99803.39
2019-05-26T23:49:16.524Z,99794.34
2019-05-26T23:51:47.471Z,99794.03
2019-05-26T23:54:19.303Z,99794.70
2019-05-26T23:56:51.244Z,99799.39
2019-05-26T23:59:22.379Z,99798.51
